sensor_id;sensor_type;location;lat;lon;timestamp;temperature;humidity
30244;DHT22;64022;53.652;9.792;2023-09-18T00:00:21;24.60;65.10
30244;DHT22;64022;53.652;9.792;2023-09-18T00:02:47;24.60;65.10
30244;DHT22;64022;53.652;9.792;2023-09-18T00:05:12;24.60;65.10
30244;DHT22;64022;53.652;9.792;2023-09-18T00:07:41;24.60;65.10
30244;DHT22;64022;53.652;9.792;2023-09-18T00:10:07;24.60;65.00
30244;DHT22;64022;53.652;9.792;2023-09-18T00:12:32;24.60;65.00
30244;DHT22;64022;53.652;9.792;2023-09-18T00:14:57;24.60;65.00
30244;DHT22;64022;53.652;9.792;2023-09-18T00:17:23;24.60;65.00
30244;DHT22;64022;53.652;9.792;2023-09-18T00:19:49;24.60;65.00
30244;DHT22;64022;53.652;9.792;2023-09-18T00:22:14;24.60;64.90
30244;DHT22;64022;53.652;9.792;2023-09-18T00:24:39;24.60;64.90
30244;DHT22;64022;53.652;9.792;2023-09-18T00:27:05;24.50;64.90
30244;DHT22;64022;53.652;9.792;2023-09-18T00:29:30;24.60;64.90
30244;DHT22;64022;53.652;9.792;2023-09-18T00:31:56;24.60;65.40
30244;DHT22;64022;53.652;9.792;2023-09-18T00:34:21;24.50;64.80
30244;DHT22;64022;53.652;9.792;2023-09-18T00:36:47;24.60;64.90
30244;DHT22;64022;53.652;9.792;2023-09-18T00:39:12;24.60;64.90
30244;DHT22;64022;53.652;9.792;2023-09-18T00:41:39;24.60;64.90
30244;DHT22;64022;53.652;9.792;2023-09-18T00:44:06;24.60;64.90
30244;DHT22;64022;53.652;9.792;2023-09-18T00:46:31;24.60;64.80
30244;DHT22;64022;53.652;9.792;2023-09-18T00:48:57;24.60;64.80
30244;DHT22;64022;53.652;9.792;2023-09-18T00:51:23;24.60;64.80
30244;DHT22;64022;53.652;9.792;2023-09-18T00:53:48;24.60;64.80
30244;DHT22;64022;53.652;9.792;2023-09-18T00:56:14;24.60;64.80
30244;DHT22;64022;53.652;9.792;2023-09-18T00:58:40;24.60;64.80
30244;DHT22;64022;53.652;9.792;2023-09-18T01:01:06;24.60;64.70
30244;DHT22;64022;53.652;9.792;2023-09-18T01:03:31;24.60;64.70
30244;DHT22;64022;53.652;9.792;2023-09-18T01:05:57;24.60;64.70
30244;DHT22;64022;53.652;9.792;2023-09-18T01:08:22;24.50;64.60
30244;DHT22;64022;53.652;9.792;2023-09-18T01:11:14;24.60;64.70
30244;DHT22;64022;53.652;9.792;2023-09-18T01:13:49;24.60;64.70
30244;DHT22;64022;53.652;9.792;2023-09-18T01:16:17;24.50;64.60
30244;DHT22;64022;53.652;9.792;2023-09-18T01:18:51;24.50;64.60
30244;DHT22;64022;53.652;9.792;2023-09-18T01:21:20;24.50;64.50
30244;DHT22;64022;53.652;9.792;2023-09-18T01:23:46;24.50;64.50
30244;DHT22;64022;53.652;9.792;2023-09-18T01:26:11;24.50;64.50
30244;DHT22;64022;53.652;9.792;2023-09-18T01:28:37;24.50;64.50
30244;DHT22;64022;53.652;9.792;2023-09-18T01:31:02;24.50;64.50
30244;DHT22;64022;53.652;9.792;2023-09-18T01:33:28;24.50;64.50
30244;DHT22;64022;53.652;9.792;2023-09-18T01:35:54;24.60;64.50
30244;DHT22;64022;53.652;9.792;2023-09-18T01:38:21;24.50;64.50
30244;DHT22;64022;53.652;9.792;2023-09-18T01:40:47;24.50;64.50
30244;DHT22;64022;53.652;9.792;2023-09-18T01:43:12;24.50;64.40
30244;DHT22;64022;53.652;9.792;2023-09-18T01:45:38;24.50;64.40
30244;DHT22;64022;53.652;9.792;2023-09-18T01:48:04;24.50;64.40
30244;DHT22;64022;53.652;9.792;2023-09-18T01:50:31;24.50;64.40
30244;DHT22;64022;53.652;9.792;2023-09-18T01:52:58;24.50;64.40
30244;DHT22;64022;53.652;9.792;2023-09-18T01:55:23;24.50;64.40
30244;DHT22;64022;53.652;9.792;2023-09-18T01:57:49;24.50;64.40
30244;DHT22;64022;53.652;9.792;2023-09-18T02:00:14;24.50;64.40
30244;DHT22;64022;53.652;9.792;2023-09-18T02:02:40;24.50;64.40
30244;DHT22;64022;53.652;9.792;2023-09-18T02:05:05;24.50;64.40
30244;DHT22;64022;53.652;9.792;2023-09-18T02:07:31;24.50;64.40
30244;DHT22;64022;53.652;9.792;2023-09-18T02:09:57;24.50;64.40
30244;DHT22;64022;53.652;9.792;2023-09-18T02:12:22;24.50;64.30
30244;DHT22;64022;53.652;9.792;2023-09-18T02:14:48;24.50;64.30
30244;DHT22;64022;53.652;9.792;2023-09-18T02:17:13;24.50;64.30
30244;DHT22;64022;53.652;9.792;2023-09-18T02:19:39;24.50;64.30
30244;DHT22;64022;53.652;9.792;2023-09-18T02:22:04;24.50;64.30
30244;DHT22;64022;53.652;9.792;2023-09-18T02:24:30;24.50;64.30
30244;DHT22;64022;53.652;9.792;2023-09-18T02:26:55;24.50;64.30
30244;DHT22;64022;53.652;9.792;2023-09-18T02:29:20;24.50;64.20
30244;DHT22;64022;53.652;9.792;2023-09-18T02:31:46;24.50;64.20
30244;DHT22;64022;53.652;9.792;2023-09-18T02:34:11;24.50;64.20
30244;DHT22;64022;53.652;9.792;2023-09-18T02:36:37;24.50;64.20
30244;DHT22;64022;53.652;9.792;2023-09-18T02:39:02;24.50;64.20
30244;DHT22;64022;53.652;9.792;2023-09-18T02:41:28;24.50;64.10
30244;DHT22;64022;53.652;9.792;2023-09-18T02:43:53;24.50;64.10
30244;DHT22;64022;53.652;9.792;2023-09-18T02:46:19;24.50;64.10
30244;DHT22;64022;53.652;9.792;2023-09-18T02:48:44;24.50;64.10
30244;DHT22;64022;53.652;9.792;2023-09-18T02:51:10;24.50;64.00
30244;DHT22;64022;53.652;9.792;2023-09-18T02:53:35;24.50;64.00
30244;DHT22;64022;53.652;9.792;2023-09-18T02:56:00;24.50;64.00
30244;DHT22;64022;53.652;9.792;2023-09-18T02:58:26;24.50;64.00
30244;DHT22;64022;53.652;9.792;2023-09-18T03:00:54;24.50;64.00
30244;DHT22;64022;53.652;9.792;2023-09-18T03:03:20;24.50;64.00
30244;DHT22;64022;53.652;9.792;2023-09-18T03:05:45;24.50;64.00
30244;DHT22;64022;53.652;9.792;2023-09-18T03:08:11;24.50;64.00
30244;DHT22;64022;53.652;9.792;2023-09-18T03:10:38;24.50;64.00
30244;DHT22;64022;53.652;9.792;2023-09-18T03:13:05;24.50;63.90
30244;DHT22;64022;53.652;9.792;2023-09-18T03:15:31;24.50;63.90
30244;DHT22;64022;53.652;9.792;2023-09-18T03:17:59;24.50;63.90
30244;DHT22;64022;53.652;9.792;2023-09-18T03:20:26;24.50;63.60
30244;DHT22;64022;53.652;9.792;2023-09-18T03:22:53;24.40;63.60
30244;DHT22;64022;53.652;9.792;2023-09-18T03:25:19;24.40;63.70
30244;DHT22;64022;53.652;9.792;2023-09-18T03:27:44;24.40;63.70
30244;DHT22;64022;53.652;9.792;2023-09-18T03:30:09;24.40;63.70
30244;DHT22;64022;53.652;9.792;2023-09-18T03:32:38;24.40;63.70
30244;DHT22;64022;53.652;9.792;2023-09-18T03:35:03;24.40;63.70
30244;DHT22;64022;53.652;9.792;2023-09-18T03:37:29;24.40;63.70
30244;DHT22;64022;53.652;9.792;2023-09-18T03:39:54;24.40;63.70
30244;DHT22;64022;53.652;9.792;2023-09-18T03:42:20;24.40;63.70
30244;DHT22;64022;53.652;9.792;2023-09-18T03:44:45;24.50;63.70
30244;DHT22;64022;53.652;9.792;2023-09-18T03:47:10;24.40;63.60
30244;DHT22;64022;53.652;9.792;2023-09-18T03:49:36;24.40;63.60
30244;DHT22;64022;53.652;9.792;2023-09-18T03:52:01;24.40;63.60
30244;DHT22;64022;53.652;9.792;2023-09-18T03:54:27;24.40;63.60
30244;DHT22;64022;53.652;9.792;2023-09-18T03:56:53;24.40;63.60
30244;DHT22;64022;53.652;9.792;2023-09-18T03:59:18;24.40;63.60
30244;DHT22;64022;53.652;9.792;2023-09-18T04:01:44;24.40;63.50
30244;DHT22;64022;53.652;9.792;2023-09-18T04:04:10;24.40;63.50
30244;DHT22;64022;53.652;9.792;2023-09-18T04:06:36;24.40;63.50
30244;DHT22;64022;53.652;9.792;2023-09-18T04:09:03;24.40;63.50
30244;DHT22;64022;53.652;9.792;2023-09-18T04:11:28;24.40;63.50
30244;DHT22;64022;53.652;9.792;2023-09-18T04:13:58;24.40;63.50
30244;DHT22;64022;53.652;9.792;2023-09-18T04:16:24;24.40;63.50
30244;DHT22;64022;53.652;9.792;2023-09-18T04:18:49;24.40;63.50
30244;DHT22;64022;53.652;9.792;2023-09-18T04:21:14;24.40;63.50
30244;DHT22;64022;53.652;9.792;2023-09-18T04:23:40;24.40;63.50
30244;DHT22;64022;53.652;9.792;2023-09-18T04:26:05;24.40;63.50
30244;DHT22;64022;53.652;9.792;2023-09-18T04:28:31;24.40;63.50
30244;DHT22;64022;53.652;9.792;2023-09-18T04:30:56;24.40;63.50
30244;DHT22;64022;53.652;9.792;2023-09-18T04:33:22;24.40;63.50
30244;DHT22;64022;53.652;9.792;2023-09-18T04:35:47;24.40;63.50
30244;DHT22;64022;53.652;9.792;2023-09-18T04:38:13;24.40;63.50
30244;DHT22;64022;53.652;9.792;2023-09-18T04:40:42;24.40;63.50
30244;DHT22;64022;53.652;9.792;2023-09-18T04:43:08;24.40;63.50
30244;DHT22;64022;53.652;9.792;2023-09-18T04:45:33;24.40;63.40
30244;DHT22;64022;53.652;9.792;2023-09-18T04:47:59;24.40;63.40
30244;DHT22;64022;53.652;9.792;2023-09-18T04:50:24;24.40;63.40
30244;DHT22;64022;53.652;9.792;2023-09-18T04:52:51;24.40;63.40
30244;DHT22;64022;53.652;9.792;2023-09-18T04:55:17;24.40;63.40
30244;DHT22;64022;53.652;9.792;2023-09-18T04:57:43;24.40;63.50
30244;DHT22;64022;53.652;9.792;2023-09-18T05:00:08;24.40;63.50
30244;DHT22;64022;53.652;9.792;2023-09-18T05:02:35;24.40;63.50
30244;DHT22;64022;53.652;9.792;2023-09-18T05:05:00;24.40;63.50
30244;DHT22;64022;53.652;9.792;2023-09-18T05:07:26;24.40;63.40
30244;DHT22;64022;53.652;9.792;2023-09-18T05:09:52;24.40;63.40
30244;DHT22;64022;53.652;9.792;2023-09-18T05:12:17;24.40;63.50
30244;DHT22;64022;53.652;9.792;2023-09-18T05:14:43;24.40;63.50
30244;DHT22;64022;53.652;9.792;2023-09-18T05:17:09;24.40;63.50
30244;DHT22;64022;53.652;9.792;2023-09-18T05:19:35;24.40;63.50
30244;DHT22;64022;53.652;9.792;2023-09-18T05:22:01;24.40;63.50
30244;DHT22;64022;53.652;9.792;2023-09-18T05:24:26;24.40;63.50
30244;DHT22;64022;53.652;9.792;2023-09-18T05:26:52;24.40;63.50
30244;DHT22;64022;53.652;9.792;2023-09-18T05:29:18;24.40;63.50
30244;DHT22;64022;53.652;9.792;2023-09-18T05:31:44;24.40;63.50
30244;DHT22;64022;53.652;9.792;2023-09-18T05:34:11;24.40;63.50
30244;DHT22;64022;53.652;9.792;2023-09-18T05:36:36;24.40;63.50
30244;DHT22;64022;53.652;9.792;2023-09-18T05:39:01;24.40;63.40
30244;DHT22;64022;53.652;9.792;2023-09-18T05:41:28;24.40;63.90
30244;DHT22;64022;53.652;9.792;2023-09-18T05:43:55;24.40;63.40
30244;DHT22;64022;53.652;9.792;2023-09-18T05:46:20;24.40;63.40
30244;DHT22;64022;53.652;9.792;2023-09-18T05:48:45;24.40;63.30
30244;DHT22;64022;53.652;9.792;2023-09-18T05:51:11;24.40;63.30
30244;DHT22;64022;53.652;9.792;2023-09-18T05:53:36;24.40;63.20
30244;DHT22;64022;53.652;9.792;2023-09-18T05:56:03;24.30;63.10
30244;DHT22;64022;53.652;9.792;2023-09-18T05:58:30;24.40;63.20
30244;DHT22;64022;53.652;9.792;2023-09-18T06:01:00;24.40;63.30
30244;DHT22;64022;53.652;9.792;2023-09-18T06:03:26;24.30;63.20
30244;DHT22;64022;53.652;9.792;2023-09-18T06:05:51;24.30;63.10
30244;DHT22;64022;53.652;9.792;2023-09-18T06:08:17;24.30;63.10
30244;DHT22;64022;53.652;9.792;2023-09-18T06:10:44;24.30;63.10
30244;DHT22;64022;53.652;9.792;2023-09-18T06:13:10;24.30;63.20
30244;DHT22;64022;53.652;9.792;2023-09-18T06:15:36;24.30;63.20
30244;DHT22;64022;53.652;9.792;2023-09-18T06:18:01;24.30;63.20
30244;DHT22;64022;53.652;9.792;2023-09-18T06:20:27;24.30;63.20
30244;DHT22;64022;53.652;9.792;2023-09-18T06:22:52;24.40;63.20
30244;DHT22;64022;53.652;9.792;2023-09-18T06:25:18;24.30;63.20
30244;DHT22;64022;53.652;9.792;2023-09-18T06:27:44;24.40;63.20
30244;DHT22;64022;53.652;9.792;2023-09-18T06:30:09;24.40;63.20
30244;DHT22;64022;53.652;9.792;2023-09-18T06:32:35;24.40;63.20
30244;DHT22;64022;53.652;9.792;2023-09-18T06:35:02;24.40;63.10
30244;DHT22;64022;53.652;9.792;2023-09-18T06:37:27;24.40;63.10
30244;DHT22;64022;53.652;9.792;2023-09-18T06:39:53;24.30;63.10
30244;DHT22;64022;53.652;9.792;2023-09-18T06:42:19;24.40;63.10
30244;DHT22;64022;53.652;9.792;2023-09-18T06:44:44;24.40;63.10
30244;DHT22;64022;53.652;9.792;2023-09-18T06:47:10;24.40;63.70
30244;DHT22;64022;53.652;9.792;2023-09-18T06:49:35;24.40;63.10
30244;DHT22;64022;53.652;9.792;2023-09-18T06:52:01;24.40;63.10
30244;DHT22;64022;53.652;9.792;2023-09-18T06:54:26;24.40;63.10
30244;DHT22;64022;53.652;9.792;2023-09-18T06:56:52;24.40;63.10
30244;DHT22;64022;53.652;9.792;2023-09-18T06:59:17;24.40;63.10
30244;DHT22;64022;53.652;9.792;2023-09-18T07:01:42;24.40;63.10
30244;DHT22;64022;53.652;9.792;2023-09-18T07:04:08;24.40;63.00
30244;DHT22;64022;53.652;9.792;2023-09-18T07:06:34;24.40;62.90
30244;DHT22;64022;53.652;9.792;2023-09-18T07:08:59;24.40;62.90
30244;DHT22;64022;53.652;9.792;2023-09-18T07:11:25;24.40;63.00
30244;DHT22;64022;53.652;9.792;2023-09-18T07:13:50;24.40;63.00
30244;DHT22;64022;53.652;9.792;2023-09-18T07:16:16;24.40;63.10
30244;DHT22;64022;53.652;9.792;2023-09-18T07:18:41;24.40;63.10
30244;DHT22;64022;53.652;9.792;2023-09-18T07:21:07;24.40;63.10
30244;DHT22;64022;53.652;9.792;2023-09-18T07:23:32;24.40;63.10
30244;DHT22;64022;53.652;9.792;2023-09-18T07:26:01;24.40;63.10
30244;DHT22;64022;53.652;9.792;2023-09-18T07:28:26;24.40;63.10
30244;DHT22;64022;53.652;9.792;2023-09-18T07:30:52;24.40;63.10
30244;DHT22;64022;53.652;9.792;2023-09-18T07:33:17;24.40;63.10
30244;DHT22;64022;53.652;9.792;2023-09-18T07:35:48;24.40;63.10
30244;DHT22;64022;53.652;9.792;2023-09-18T07:38:14;24.40;63.10
30244;DHT22;64022;53.652;9.792;2023-09-18T07:40:40;24.40;63.10
30244;DHT22;64022;53.652;9.792;2023-09-18T07:43:06;24.40;63.60
30244;DHT22;64022;53.652;9.792;2023-09-18T07:45:31;24.40;63.10
30244;DHT22;64022;53.652;9.792;2023-09-18T07:47:56;24.40;63.10
30244;DHT22;64022;53.652;9.792;2023-09-18T07:50:22;24.40;63.10
30244;DHT22;64022;53.652;9.792;2023-09-18T07:52:47;24.40;63.10
30244;DHT22;64022;53.652;9.792;2023-09-18T07:55:13;24.40;63.10
30244;DHT22;64022;53.652;9.792;2023-09-18T07:57:39;24.40;63.10
30244;DHT22;64022;53.652;9.792;2023-09-18T08:00:05;24.50;63.20
30244;DHT22;64022;53.652;9.792;2023-09-18T08:02:38;24.50;63.20
30244;DHT22;64022;53.652;9.792;2023-09-18T08:05:04;24.50;63.20
30244;DHT22;64022;53.652;9.792;2023-09-18T08:07:30;24.40;63.20
30244;DHT22;64022;53.652;9.792;2023-09-18T08:09:56;24.40;63.20
30244;DHT22;64022;53.652;9.792;2023-09-18T08:12:22;24.50;63.20
30244;DHT22;64022;53.652;9.792;2023-09-18T08:14:48;24.50;63.20
30244;DHT22;64022;53.652;9.792;2023-09-18T08:17:15;24.40;63.70
30244;DHT22;64022;53.652;9.792;2023-09-18T08:19:40;24.40;63.20
30244;DHT22;64022;53.652;9.792;2023-09-18T08:22:06;24.50;63.20
30244;DHT22;64022;53.652;9.792;2023-09-18T08:24:31;24.50;63.20
30244;DHT22;64022;53.652;9.792;2023-09-18T08:26:57;24.50;63.30
30244;DHT22;64022;53.652;9.792;2023-09-18T08:29:22;24.40;63.20
30244;DHT22;64022;53.652;9.792;2023-09-18T08:31:48;24.50;63.30
30244;DHT22;64022;53.652;9.792;2023-09-18T08:34:14;24.50;63.30
30244;DHT22;64022;53.652;9.792;2023-09-18T08:36:40;24.40;63.20
30244;DHT22;64022;53.652;9.792;2023-09-18T08:39:05;24.50;63.30
30244;DHT22;64022;53.652;9.792;2023-09-18T08:41:37;24.50;63.30
30244;DHT22;64022;53.652;9.792;2023-09-18T08:44:03;24.50;63.30
30244;DHT22;64022;53.652;9.792;2023-09-18T08:46:31;24.50;63.90
30244;DHT22;64022;53.652;9.792;2023-09-18T08:48:57;24.50;63.40
30244;DHT22;64022;53.652;9.792;2023-09-18T08:51:22;24.50;63.40
30244;DHT22;64022;53.652;9.792;2023-09-18T08:53:48;24.50;63.40
30244;DHT22;64022;53.652;9.792;2023-09-18T08:56:14;24.50;63.40
30244;DHT22;64022;53.652;9.792;2023-09-18T08:58:40;24.50;63.40
30244;DHT22;64022;53.652;9.792;2023-09-18T09:01:11;24.50;63.40
30244;DHT22;64022;53.652;9.792;2023-09-18T09:03:37;24.50;63.40
30244;DHT22;64022;53.652;9.792;2023-09-18T09:06:03;24.50;63.40
30244;DHT22;64022;53.652;9.792;2023-09-18T09:08:29;24.50;63.40
30244;DHT22;64022;53.652;9.792;2023-09-18T09:10:55;24.50;63.40
30244;DHT22;64022;53.652;9.792;2023-09-18T09:13:23;24.50;63.40
30244;DHT22;64022;53.652;9.792;2023-09-18T09:15:52;24.50;63.50
30244;DHT22;64022;53.652;9.792;2023-09-18T09:18:19;24.50;63.50
30244;DHT22;64022;53.652;9.792;2023-09-18T09:21:01;24.50;63.50
30244;DHT22;64022;53.652;9.792;2023-09-18T09:23:29;24.50;63.50
30244;DHT22;64022;53.652;9.792;2023-09-18T09:26:12;24.50;63.50
30244;DHT22;64022;53.652;9.792;2023-09-18T09:28:38;24.50;63.50
30244;DHT22;64022;53.652;9.792;2023-09-18T09:31:03;24.50;63.60
30244;DHT22;64022;53.652;9.792;2023-09-18T09:33:29;24.50;63.60
30244;DHT22;64022;53.652;9.792;2023-09-18T09:35:55;24.50;63.60
30244;DHT22;64022;53.652;9.792;2023-09-18T09:38:22;24.50;63.60
30244;DHT22;64022;53.652;9.792;2023-09-18T09:40:52;24.50;63.60
30244;DHT22;64022;53.652;9.792;2023-09-18T09:43:18;24.60;63.70
30244;DHT22;64022;53.652;9.792;2023-09-18T09:45:44;24.60;63.60
30244;DHT22;64022;53.652;9.792;2023-09-18T09:48:11;24.60;63.60
30244;DHT22;64022;53.652;9.792;2023-09-18T09:50:46;24.60;63.60
30244;DHT22;64022;53.652;9.792;2023-09-18T09:53:16;24.60;63.60
30244;DHT22;64022;53.652;9.792;2023-09-18T09:55:41;24.60;63.60
30244;DHT22;64022;53.652;9.792;2023-09-18T09:58:07;24.60;63.60
30244;DHT22;64022;53.652;9.792;2023-09-18T10:00:33;24.60;63.60
30244;DHT22;64022;53.652;9.792;2023-09-18T10:03:08;24.60;63.60
30244;DHT22;64022;53.652;9.792;2023-09-18T10:05:34;24.60;63.60
30244;DHT22;64022;53.652;9.792;2023-09-18T10:08:07;24.60;63.60
30244;DHT22;64022;53.652;9.792;2023-09-18T10:10:35;24.60;63.60
30244;DHT22;64022;53.652;9.792;2023-09-18T10:13:02;24.60;63.60
30244;DHT22;64022;53.652;9.792;2023-09-18T10:15:29;24.60;63.60
30244;DHT22;64022;53.652;9.792;2023-09-18T10:17:58;24.70;63.60
30244;DHT22;64022;53.652;9.792;2023-09-18T10:20:25;24.60;63.60
30244;DHT22;64022;53.652;9.792;2023-09-18T10:22:56;24.60;63.50
30244;DHT22;64022;53.652;9.792;2023-09-18T10:25:25;24.70;63.60
30244;DHT22;64022;53.652;9.792;2023-09-18T10:27:53;24.70;63.60
30244;DHT22;64022;53.652;9.792;2023-09-18T10:30:24;24.70;63.60
30244;DHT22;64022;53.652;9.792;2023-09-18T10:32:51;24.70;63.60
30244;DHT22;64022;53.652;9.792;2023-09-18T10:35:16;24.60;63.50
30244;DHT22;64022;53.652;9.792;2023-09-18T10:37:43;24.60;63.50
30244;DHT22;64022;53.652;9.792;2023-09-18T10:40:09;24.70;63.50
30244;DHT22;64022;53.652;9.792;2023-09-18T10:42:35;24.70;63.50
30244;DHT22;64022;53.652;9.792;2023-09-18T10:45:02;24.70;63.50
30244;DHT22;64022;53.652;9.792;2023-09-18T10:47:29;24.70;63.50
30244;DHT22;64022;53.652;9.792;2023-09-18T10:49:55;24.70;63.50
30244;DHT22;64022;53.652;9.792;2023-09-18T10:52:21;24.70;63.50
30244;DHT22;64022;53.652;9.792;2023-09-18T10:54:46;24.70;63.60
30244;DHT22;64022;53.652;9.792;2023-09-18T10:57:12;24.70;63.50
30244;DHT22;64022;53.652;9.792;2023-09-18T10:59:44;24.70;63.50
30244;DHT22;64022;53.652;9.792;2023-09-18T11:02:13;24.70;63.50
30244;DHT22;64022;53.652;9.792;2023-09-18T11:04:38;24.70;63.50
30244;DHT22;64022;53.652;9.792;2023-09-18T11:07:06;24.70;63.50
30244;DHT22;64022;53.652;9.792;2023-09-18T11:09:32;24.70;63.50
30244;DHT22;64022;53.652;9.792;2023-09-18T11:12:05;24.70;63.50
30244;DHT22;64022;53.652;9.792;2023-09-18T11:17:27;24.70;63.50
30244;DHT22;64022;53.652;9.792;2023-09-18T11:20:01;24.70;63.50
30244;DHT22;64022;53.652;9.792;2023-09-18T11:22:26;24.70;63.50
30244;DHT22;64022;53.652;9.792;2023-09-18T11:24:52;24.70;63.50
30244;DHT22;64022;53.652;9.792;2023-09-18T11:27:23;24.70;63.50
30244;DHT22;64022;53.652;9.792;2023-09-18T11:29:51;24.70;63.60
30244;DHT22;64022;53.652;9.792;2023-09-18T11:32:36;24.70;63.60
30244;DHT22;64022;53.652;9.792;2023-09-18T11:35:08;24.80;63.70
30244;DHT22;64022;53.652;9.792;2023-09-18T11:37:33;24.70;63.60
30244;DHT22;64022;53.652;9.792;2023-09-18T11:39:59;24.80;63.70
30244;DHT22;64022;53.652;9.792;2023-09-18T11:42:25;24.80;63.70
30244;DHT22;64022;53.652;9.792;2023-09-18T11:44:52;24.80;63.70
30244;DHT22;64022;53.652;9.792;2023-09-18T11:47:18;24.80;63.70
30244;DHT22;64022;53.652;9.792;2023-09-18T11:49:58;24.80;63.70
30244;DHT22;64022;53.652;9.792;2023-09-18T11:52:24;24.80;63.70
30244;DHT22;64022;53.652;9.792;2023-09-18T11:54:51;24.80;63.70
30244;DHT22;64022;53.652;9.792;2023-09-18T11:57:20;24.80;63.80
30244;DHT22;64022;53.652;9.792;2023-09-18T11:59:45;24.80;63.80
30244;DHT22;64022;53.652;9.792;2023-09-18T12:02:30;24.80;63.80
30244;DHT22;64022;53.652;9.792;2023-09-18T12:05:33;24.80;63.90
30244;DHT22;64022;53.652;9.792;2023-09-18T12:07:51;24.90;63.90
30244;DHT22;64022;53.652;9.792;2023-09-18T12:10:18;24.90;64.00
30244;DHT22;64022;53.652;9.792;2023-09-18T12:12:43;24.80;63.90
30244;DHT22;64022;53.652;9.792;2023-09-18T12:15:12;24.80;64.00
30244;DHT22;64022;53.652;9.792;2023-09-18T12:17:39;24.90;64.10
30244;DHT22;64022;53.652;9.792;2023-09-18T12:20:04;24.90;64.10
30244;DHT22;64022;53.652;9.792;2023-09-18T12:22:31;24.90;64.10
30244;DHT22;64022;53.652;9.792;2023-09-18T12:25:10;24.90;64.60
30244;DHT22;64022;53.652;9.792;2023-09-18T12:27:36;24.90;64.10
30244;DHT22;64022;53.652;9.792;2023-09-18T12:30:03;24.90;64.20
30244;DHT22;64022;53.652;9.792;2023-09-18T12:32:30;24.90;64.20
30244;DHT22;64022;53.652;9.792;2023-09-18T12:34:55;24.90;64.20
30244;DHT22;64022;53.652;9.792;2023-09-18T12:37:21;24.90;64.20
30244;DHT22;64022;53.652;9.792;2023-09-18T12:39:46;24.90;64.20
30244;DHT22;64022;53.652;9.792;2023-09-18T12:42:12;24.90;64.30
30244;DHT22;64022;53.652;9.792;2023-09-18T12:44:37;24.90;64.30
30244;DHT22;64022;53.652;9.792;2023-09-18T12:47:03;24.90;64.30
30244;DHT22;64022;53.652;9.792;2023-09-18T12:49:30;24.90;64.40
30244;DHT22;64022;53.652;9.792;2023-09-18T12:51:57;24.90;64.40
30244;DHT22;64022;53.652;9.792;2023-09-18T12:54:36;24.90;64.40
30244;DHT22;64022;53.652;9.792;2023-09-18T12:57:02;25.00;64.50
30244;DHT22;64022;53.652;9.792;2023-09-18T12:59:33;25.00;64.50
30244;DHT22;64022;53.652;9.792;2023-09-18T13:01:59;25.00;64.50
30244;DHT22;64022;53.652;9.792;2023-09-18T13:04:24;25.00;64.50
30244;DHT22;64022;53.652;9.792;2023-09-18T13:07:25;25.00;64.60
30244;DHT22;64022;53.652;9.792;2023-09-18T13:10:02;25.00;64.60
30244;DHT22;64022;53.652;9.792;2023-09-18T13:12:42;25.00;64.60
30244;DHT22;64022;53.652;9.792;2023-09-18T13:15:08;25.00;64.60
30244;DHT22;64022;53.652;9.792;2023-09-18T13:17:52;25.00;64.60
30244;DHT22;64022;53.652;9.792;2023-09-18T13:20:20;25.00;64.70
30244;DHT22;64022;53.652;9.792;2023-09-18T13:22:49;25.00;64.70
30244;DHT22;64022;53.652;9.792;2023-09-18T13:25:25;25.00;64.70
30244;DHT22;64022;53.652;9.792;2023-09-18T13:27:51;25.00;64.70
30244;DHT22;64022;53.652;9.792;2023-09-18T13:30:16;25.00;64.70
30244;DHT22;64022;53.652;9.792;2023-09-18T13:32:43;25.00;64.70
30244;DHT22;64022;53.652;9.792;2023-09-18T13:35:10;25.00;65.20
30244;DHT22;64022;53.652;9.792;2023-09-18T13:37:39;25.00;64.70
30244;DHT22;64022;53.652;9.792;2023-09-18T13:40:05;25.00;64.70
30244;DHT22;64022;53.652;9.792;2023-09-18T13:42:32;25.00;64.80
30244;DHT22;64022;53.652;9.792;2023-09-18T13:44:58;25.00;64.80
30244;DHT22;64022;53.652;9.792;2023-09-18T13:47:27;25.00;64.80
30244;DHT22;64022;53.652;9.792;2023-09-18T13:49:53;25.00;64.80
30244;DHT22;64022;53.652;9.792;2023-09-18T13:52:22;25.00;64.80
30244;DHT22;64022;53.652;9.792;2023-09-18T13:54:48;25.00;64.80
30244;DHT22;64022;53.652;9.792;2023-09-18T13:57:17;25.00;64.80
30244;DHT22;64022;53.652;9.792;2023-09-18T13:59:47;25.00;64.80
30244;DHT22;64022;53.652;9.792;2023-09-18T14:02:14;25.00;64.90
30244;DHT22;64022;53.652;9.792;2023-09-18T14:04:39;25.00;64.90
30244;DHT22;64022;53.652;9.792;2023-09-18T14:07:08;25.00;64.90
30244;DHT22;64022;53.652;9.792;2023-09-18T14:09:34;25.00;64.90
30244;DHT22;64022;53.652;9.792;2023-09-18T14:12:00;25.00;64.90
30244;DHT22;64022;53.652;9.792;2023-09-18T14:14:25;25.00;64.90
30244;DHT22;64022;53.652;9.792;2023-09-18T14:16:51;25.00;64.90
30244;DHT22;64022;53.652;9.792;2023-09-18T14:19:16;25.00;64.90
30244;DHT22;64022;53.652;9.792;2023-09-18T14:21:42;25.00;64.90
30244;DHT22;64022;53.652;9.792;2023-09-18T14:24:08;25.10;65.00
30244;DHT22;64022;53.652;9.792;2023-09-18T14:26:35;25.10;65.00
30244;DHT22;64022;53.652;9.792;2023-09-18T14:29:08;25.10;65.00
30244;DHT22;64022;53.652;9.792;2023-09-18T14:31:35;25.10;65.00
30244;DHT22;64022;53.652;9.792;2023-09-18T14:34:01;25.00;65.00
30244;DHT22;64022;53.652;9.792;2023-09-18T14:36:26;25.10;65.00
30244;DHT22;64022;53.652;9.792;2023-09-18T14:38:52;25.10;65.00
30244;DHT22;64022;53.652;9.792;2023-09-18T14:41:18;25.10;65.00
30244;DHT22;64022;53.652;9.792;2023-09-18T14:43:46;25.10;65.10
30244;DHT22;64022;53.652;9.792;2023-09-18T14:46:12;25.10;65.10
30244;DHT22;64022;53.652;9.792;2023-09-18T14:48:37;25.10;65.10
30244;DHT22;64022;53.652;9.792;2023-09-18T14:51:03;25.10;65.10
30244;DHT22;64022;53.652;9.792;2023-09-18T14:53:29;25.10;65.10
30244;DHT22;64022;53.652;9.792;2023-09-18T14:55:54;25.10;65.10
30244;DHT22;64022;53.652;9.792;2023-09-18T14:58:23;25.10;65.10
30244;DHT22;64022;53.652;9.792;2023-09-18T15:00:49;25.10;65.10
30244;DHT22;64022;53.652;9.792;2023-09-18T15:03:15;25.10;65.10
30244;DHT22;64022;53.652;9.792;2023-09-18T15:05:40;25.10;65.10
30244;DHT22;64022;53.652;9.792;2023-09-18T15:08:06;25.10;65.30
30244;DHT22;64022;53.652;9.792;2023-09-18T15:10:32;25.10;65.20
30244;DHT22;64022;53.652;9.792;2023-09-18T15:12:57;25.10;65.20
30244;DHT22;64022;53.652;9.792;2023-09-18T15:15:23;25.10;65.20
30244;DHT22;64022;53.652;9.792;2023-09-18T15:17:49;25.10;65.20
30244;DHT22;64022;53.652;9.792;2023-09-18T15:20:17;25.10;65.20
30244;DHT22;64022;53.652;9.792;2023-09-18T15:22:43;25.10;65.20
30244;DHT22;64022;53.652;9.792;2023-09-18T15:25:09;25.10;65.20
30244;DHT22;64022;53.652;9.792;2023-09-18T15:27:36;25.20;65.30
30244;DHT22;64022;53.652;9.792;2023-09-18T15:30:02;25.10;65.20